Time,TemperatureF,DewpointF,PressureIn,WindDirection,WindDirectionDegrees,WindSpeedMPH,WindSpeedGustMPH,Humidity,HourlyPrecipIn,Conditions,Clouds,dailyrainin,SoftwareType,DateUTC
2014-02-07 00:12:00,54.0,-99.9,-100.00,NNW,341,7.0,12.0,-999,-99.99,,,-99.99,,2014-02-07 07:12:00,
2014-02-07 00:22:00,53.0,-99.9,-100.00,NNW,343,5.0,10.0,-999,-99.99,,,-99.99,,2014-02-07 07:22:00,
2014-02-07 00:32:00,53.0,-99.9,-100.00,NNW,343,5.0,10.0,-999,-99.99,,,-99.99,,2014-02-07 07:32:00,
2014-02-07 01:12:00,51.0,-99.9,-100.00,East,101,3.0,7.0,-999,-99.99,,,-99.99,,2014-02-07 08:12:00,
2014-02-07 01:22:00,51.0,-99.9,-100.00,East,101,3.0,7.0,-999,-99.99,,,-99.99,,2014-02-07 08:22:00,
2014-02-07 01:40:00,50.0,-99.9,-100.00,NNE,30,3.0,3.0,-999,-99.99,,,-99.99,,2014-02-07 08:40:00,
2014-02-07 02:12:00,51.0,-99.9,-100.00,North,359,2.0,5.0,-999,-99.99,,,-99.99,,2014-02-07 09:12:00,
2014-02-07 02:22:00,50.0,-99.9,-100.00,NNE,30,3.0,3.0,-999,-99.99,,,-99.99,,2014-02-07 09:22:00,
2014-02-07 02:34:00,50.0,-99.9,-100.00,NNE,30,3.0,3.0,-999,-99.99,,,-99.99,,2014-02-07 09:34:00,
2014-02-07 03:20:00,48.0,-99.9,-100.00,North,-999,0.0,11.0,-999,-99.99,,,-99.99,,2014-02-07 10:20:00,
2014-02-07 03:43:00,47.0,-99.9,-100.00,NNE,33,8.0,8.0,-999,-99.99,,,-99.99,,2014-02-07 10:43:00,
2014-02-07 03:53:00,47.0,-99.9,-100.00,NNE,33,8.0,8.0,-999,-99.99,,,-99.99,,2014-02-07 10:53:00,
2014-02-07 04:12:00,48.0,-99.9,-100.00,North,-999,0.0,11.0,-999,-99.99,,,-99.99,,2014-02-07 11:12:00,
2014-02-07 04:53:00,48.0,-99.9,-100.00,ENE,61,1.0,5.0,-999,-99.99,,,-99.99,,2014-02-07 11:53:00,
2014-02-07 05:10:00,48.0,-99.9,-100.00,East,80,4.0,7.0,-999,-99.99,,,-99.99,,2014-02-07 12:10:00,
2014-02-07 05:13:00,49.0,-99.9,-100.00,ESE,107,5.0,6.0,-999,-99.99,,,-99.99,,2014-02-07 12:13:00,
2014-02-07 05:43:00,48.0,-99.9,-100.00,ENE,75,1.0,8.0,-999,-99.99,,,-99.99,,2014-02-07 12:43:00,
2014-02-07 05:52:00,48.0,-99.9,-100.00,East,80,4.0,7.0,-999,-99.99,,,-99.99,,2014-02-07 12:52:00,
2014-02-07 06:02:00,48.0,-99.9,-100.00,East,80,4.0,7.0,-999,-99.99,,,-99.99,,2014-02-07 13:02:00,
2014-02-07 06:53:00,47.0,-99.9,-100.00,NE,39,8.0,12.0,-999,-99.99,,,-99.99,,2014-02-07 13:53:00,
2014-02-07 07:02:00,47.0,-99.9,-100.00,NE,39,8.0,12.0,-999,-99.99,,,-99.99,,2014-02-07 14:02:00,
2014-02-07 07:40:00,45.0,-99.9,-100.00,NNE,22,4.0,7.0,-999,-99.99,,,-99.99,,2014-02-07 14:40:00,
2014-02-07 08:12:00,45.0,-99.9,-100.00,NNE,33,3.0,4.0,-999,-99.99,,,-99.99,,2014-02-07 15:12:00,
2014-02-07 08:22:00,45.0,-99.9,-100.00,NNE,22,4.0,7.0,-999,-99.99,,,-99.99,,2014-02-07 15:22:00,
2014-02-07 08:34:00,45.0,-99.9,-100.00,NNE,22,4.0,7.0,-999,-99.99,,,-99.99,,2014-02-07 15:34:00,
2014-02-07 09:43:00,51.0,-99.9,-100.00,ENE,76,1.0,4.0,-999,-99.99,,,-99.99,,2014-02-07 16:43:00,
2014-02-07 09:52:00,51.0,-99.9,-100.00,ENE,76,1.0,4.0,-999,-99.99,,,-99.99,,2014-02-07 16:52:00,
2014-02-07 10:20:00,56.0,-99.9,-100.00,WSW,244,2.0,4.0,-999,-99.99,,,-99.99,,2014-02-07 17:20:00,
2014-02-07 11:12:00,56.0,-99.9,-100.00,WSW,244,2.0,4.0,-999,-99.99,,,-99.99,,2014-02-07 18:12:00,
2014-02-07 13:20:00,62.0,-99.9,-100.00,West,276,8.0,8.0,-999,-99.99,,,-99.99,,2014-02-07 20:20:00,
2014-02-07 14:11:00,62.0,-99.9,-100.00,West,276,8.0,8.0,-999,-99.99,,,-99.99,,2014-02-07 21:11:00,
2014-02-07 14:20:00,63.0,-99.9,-100.00,WSW,250,8.0,14.0,-999,-99.99,,,-99.99,,2014-02-07 21:20:00,
2014-02-07 14:53:00,63.0,-99.9,-100.00,West,261,8.0,11.0,-999,-99.99,,,-99.99,,2014-02-07 21:53:00,
2014-02-07 15:13:00,63.0,-99.9,-100.00,WSW,250,8.0,14.0,-999,-99.99,,,-99.99,,2014-02-07 22:13:00,
2014-02-07 16:12:00,64.0,-99.9,-100.00,North,0,5.0,8.0,-999,-99.99,,,-99.99,,2014-02-07 23:12:00,
2014-02-07 16:22:00,64.0,-99.9,-100.00,North,0,5.0,8.0,-999,-99.99,,,-99.99,,2014-02-07 23:22:00,
2014-02-07 16:43:00,65.0,-99.9,-100.00,West,278,3.0,4.0,-999,-99.99,,,-99.99,,2014-02-07 23:43:00,
2014-02-07 16:53:00,65.0,-99.9,-100.00,West,278,3.0,4.0,-999,-99.99,,,-99.99,,2014-02-07 23:53:00,
2014-02-07 17:12:00,64.0,-99.9,-100.00,West,271,4.0,8.0,-999,-99.99,,,-99.99,,2014-02-08 00:12:00,
2014-02-07 17:22:00,64.0,-99.9,-100.00,SW,214,5.0,8.0,-999,-99.99,,,-99.99,,2014-02-08 00:22:00,
2014-02-07 17:40:00,64.0,-99.9,-100.00,SW,217,4.0,8.0,-999,-99.99,,,-99.99,,2014-02-08 00:40:00,
2014-02-07 17:42:00,64.0,-99.9,-100.00,SW,225,4.0,8.0,-999,-99.99,,,-99.99,,2014-02-08 00:42:00,
2014-02-07 17:52:00,65.0,-99.9,-100.00,WSW,247,6.0,6.0,-999,-99.99,,,-99.99,,2014-02-08 00:52:00,
2014-02-07 18:00:00,64.0,-99.9,-100.00,SW,233,7.0,7.0,-999,-99.99,,,-99.99,,2014-02-08 01:00:00,
2014-02-07 18:11:00,64.0,-99.9,-100.00,WSW,244,7.0,8.0,-999,-99.99,,,-99.99,,2014-02-08 01:11:00,
2014-02-07 18:22:00,64.0,-99.9,-100.00,SW,217,4.0,8.0,-999,-99.99,,,-99.99,,2014-02-08 01:22:00,
2014-02-07 18:32:00,64.0,-99.9,-100.00,SW,217,4.0,8.0,-999,-99.99,,,-99.99,,2014-02-08 01:32:00,
2014-02-07 18:52:00,64.0,-99.9,-100.00,SW,233,7.0,7.0,-999,-99.99,,,-99.99,,2014-02-08 01:52:00,
2014-02-07 20:00:00,61.0,-99.9,-100.00,SW,228,2.0,4.0,-999,-99.99,,,-99.99,,2014-02-08 03:00:00,
2014-02-07 20:12:00,62.0,-99.9,-100.00,NNE,21,1.0,5.0,-999,-99.99,,,-99.99,,2014-02-08 03:12:00,
2014-02-07 20:22:00,62.0,-99.9,-100.00,North,-999,0.0,3.0,-999,-99.99,,,-99.99,,2014-02-08 03:22:00,
2014-02-07 20:44:00,61.0,-99.9,-100.00,SSW,195,7.0,8.0,-999,-99.99,,,-99.99,,2014-02-08 03:44:00,
2014-02-07 20:54:00,61.0,-99.9,-100.00,SW,228,2.0,4.0,-999,-99.99,,,-99.99,,2014-02-08 03:54:00,
2014-02-07 21:43:00,58.0,-99.9,-100.00,WSW,256,3.0,5.0,-999,-99.99,,,-99.99,,2014-02-08 04:43:00,
2014-02-07 21:53:00,56.0,-99.9,-100.00,SW,232,4.0,4.0,-999,-99.99,,,-99.99,,2014-02-08 04:53:00,
2014-02-07 22:12:00,55.0,-99.9,-100.00,SW,225,4.0,6.0,-999,-99.99,,,-99.99,,2014-02-08 05:12:00,
2014-02-07 22:23:00,55.0,-99.9,-100.00,NE,51,4.0,4.0,-999,-99.99,,,-99.99,,2014-02-08 05:23:00,
2014-02-07 22:43:00,54.0,-99.9,-100.00,SSW,202,6.0,10.0,-999,-99.99,,,-99.99,,2014-02-08 05:43:00,
2014-02-07 22:53:00,54.0,-99.9,-100.00,South,177,6.0,6.0,-999,-99.99,,,-99.99,,2014-02-08 05:53:00,
2014-02-07 23:03:00,54.0,-99.9,-100.00,South,177,6.0,6.0,-999,-99.99,,,-99.99,,2014-02-08 06:03:00,
2014-02-07 23:43:00,53.0,-99.9,-100.00,North,9,4.0,6.0,-999,-99.99,,,-99.99,,2014-02-08 06:43:00,
2014-02-07 23:52:00,53.0,-99.9,-100.00,North,9,4.0,6.0,-999,-99.99,,,-99.99,,2014-02-08 06:52:00,